Time;durP1;ratioP1;P1;durP2;ratioP2;P2;SDS_P1;SDS_P2;PMS_P1;PMS_P2;Temp;Humidity;BMP_temperature;BMP_pressure;BME280_temperature;BME280_humidity;BME280_pressure;Samples;Min_cycle;Max_cycle;Signal;HPM_P1;HPM_P2
2022/06/21 00:00:27;;;;;;;0.30;0.30;;;17.60;99.90;;;;;;5116899;28;20460;-69
2022/06/21 00:03:16;;;;;;;0.30;0.30;;;17.70;99.90;;;;;;5116702;28;20414;-68
2022/06/21 00:05:44;;;;;;;0.50;0.50;;;17.60;99.90;;;;;;5116643;27;20826;-69
2022/06/21 00:08:34;;;;;;;0.30;0.30;;;17.50;99.90;;;;;;5116502;28;20507;-69
2022/06/21 00:11:00;;;;;;;0.30;0.30;;;17.50;99.90;;;;;;5116738;28;20410;-68
2022/06/21 00:13:36;;;;;;;0.30;0.30;;;17.50;99.90;;;;;;5116535;28;20798;-69
2022/06/21 00:16:05;;;;;;;0.30;0.30;;;17.50;99.90;;;;;;5116488;28;20787;-69
2022/06/21 00:18:33;;;;;;;1.43;0.67;;;17.40;99.90;;;;;;5116500;28;20417;-69
2022/06/21 00:20:58;;;;;;;0.40;0.40;;;17.40;99.90;;;;;;5116421;27;20548;-69
2022/06/21 00:23:30;;;;;;;0.30;0.30;;;17.30;99.90;;;;;;5115998;28;20508;-70
2022/06/21 00:25:56;;;;;;;0.60;0.60;;;17.40;99.90;;;;;;5116140;28;20255;-68
2022/06/21 00:28:22;;;;;;;0.30;0.30;;;17.30;99.90;;;;;;5116152;28;20905;-69
2022/06/21 00:30:49;;;;;;;1.03;1.03;;;17.30;99.90;;;;;;5116325;28;20489;-69
2022/06/21 00:33:17;;;;;;;0.60;0.60;;;17.30;99.90;;;;;;5115998;28;20509;-69
2022/06/21 00:35:46;;;;;;;1.00;0.87;;;17.30;99.90;;;;;;5114571;28;20458;-70
2022/06/21 00:38:14;;;;;;;0.30;0.30;;;17.30;99.90;;;;;;5116105;28;20489;-68
2022/06/21 00:40:40;;;;;;;0.30;0.30;;;17.30;99.90;;;;;;5115856;28;20457;-69
2022/06/21 00:43:20;;;;;;;0.30;0.30;;;17.30;99.90;;;;;;5115813;28;20405;-69
2022/06/21 00:45:48;;;;;;;0.33;0.33;;;17.30;99.90;;;;;;5115866;28;20431;-69
2022/06/21 00:48:25;;;;;;;0.30;0.30;;;17.10;99.90;;;;;;5115358;28;20407;-69
2022/06/21 00:50:56;;;;;;;0.50;0.50;;;17.20;99.90;;;;;;5115973;28;20409;-69
2022/06/21 00:53:36;;;;;;;0.30;0.30;;;17.20;99.90;;;;;;5115545;27;20839;-69
2022/06/21 00:56:10;;;;;;;0.40;0.40;;;17.00;99.90;;;;;;5115756;28;20422;-69
2022/06/21 00:58:36;;;;;;;0.30;0.30;;;17.00;99.90;;;;;;5115596;28;20438;-69
2022/06/21 01:01:13;;;;;;;0.30;0.30;;;17.10;99.90;;;;;;5115519;28;20554;-69
2022/06/21 01:03:42;;;;;;;9.53;0.97;;;17.20;99.90;;;;;;5115547;28;20221;-68
2022/06/21 01:06:32;;;;;;;0.30;0.30;;;17.10;99.90;;;;;;5115397;28;20433;-70
2022/06/21 01:09:07;;;;;;;0.30;0.30;;;17.10;99.90;;;;;;5115319;28;20402;-70
2022/06/21 01:11:41;;;;;;;0.80;0.80;;;17.10;99.90;;;;;;5115713;28;20409;-69
2022/06/21 01:14:09;;;;;;;0.50;0.50;;;17.10;99.90;;;;;;5115166;28;20409;-69
2022/06/21 01:16:36;;;;;;;0.40;0.40;;;17.20;99.90;;;;;;5115229;28;20810;-69
2022/06/21 01:19:07;;;;;;;0.40;0.40;;;17.20;99.90;;;;;;5115083;28;20479;-68
2022/06/21 01:21:36;;;;;;;0.30;0.30;;;17.20;99.90;;;;;;5115382;28;20399;-69
2022/06/21 01:24:16;;;;;;;0.40;0.40;;;17.20;99.90;;;;;;5114645;28;20933;-69
2022/06/21 01:26:55;;;;;;;0.90;0.90;;;17.20;99.90;;;;;;5115240;28;20378;-69
2022/06/21 01:29:26;;;;;;;0.30;0.30;;;17.20;99.90;;;;;;5115149;28;20402;-69
2022/06/21 01:38:42;;;;;;;0.50;0.50;;;17.20;99.90;;;;;;5115093;28;20408;-69
2022/06/21 01:41:13;;;;;;;0.40;0.40;;;17.20;99.90;;;;;;5114866;28;20413;-69
2022/06/21 01:43:42;;;;;;;0.40;0.40;;;17.20;99.90;;;;;;5114620;28;20477;-69
2022/06/21 01:46:12;;;;;;;0.80;0.80;;;17.20;99.90;;;;;;5114735;28;20466;-70
2022/06/21 01:48:42;;;;;;;0.40;0.40;;;17.20;99.90;;;;;;5114617;28;20823;-69
2022/06/21 01:51:14;;;;;;;0.30;0.30;;;17.30;99.90;;;;;;5114626;28;20426;-69
2022/06/21 01:53:41;;;;;;;0.30;0.30;;;17.30;99.90;;;;;;5114570;28;20815;-69
2022/06/21 01:56:09;;;;;;;0.37;0.37;;;17.30;99.90;;;;;;5114466;28;20509;-69
2022/06/21 01:58:41;;;;;;;0.30;0.30;;;17.30;99.90;;;;;;5114628;28;20758;-70
2022/06/21 02:01:24;;;;;;;0.30;0.30;;;17.20;99.90;;;;;;5114114;28;20448;-69
2022/06/21 02:03:55;;;;;;;0.30;0.30;;;17.20;99.90;;;;;;5114252;28;20406;-70
2022/06/21 02:06:24;;;;;;;0.47;0.47;;;17.30;99.90;;;;;;5114418;28;20383;-69
2022/06/21 02:08:57;;;;;;;0.40;0.40;;;17.30;99.90;;;;;;5114449;28;20438;-69
2022/06/21 02:11:30;;;;;;;0.40;0.40;;;17.30;99.90;;;;;;5114238;28;20404;-69
2022/06/21 02:16:49;;;;;;;0.30;0.30;;;17.30;99.90;;;;;;5114497;28;20954;-69
2022/06/21 02:19:33;;;;;;;0.40;0.40;;;17.30;99.90;;;;;;5114212;28;20502;-69
2022/06/21 02:21:59;;;;;;;0.30;0.30;;;17.30;99.90;;;;;;5113993;28;20442;-69
2022/06/21 02:24:28;;;;;;;0.80;0.80;;;17.30;99.90;;;;;;5113992;28;20422;-69
2022/06/21 02:26:55;;;;;;;0.60;0.60;;;17.30;99.90;;;;;;5114177;28;20171;-69
2022/06/21 02:29:21;;;;;;;0.40;0.40;;;17.30;99.90;;;;;;5114204;28;20409;-69
2022/06/21 02:31:47;;;;;;;2.00;1.90;;;17.30;99.90;;;;;;5114081;28;20410;-69
2022/06/21 02:34:21;;;;;;;0.30;0.30;;;17.30;99.90;;;;;;5113643;28;20176;-70
2022/06/21 02:36:57;;;;;;;0.37;0.37;;;17.40;99.90;;;;;;5113986;28;20905;-69
2022/06/21 02:39:26;;;;;;;0.30;0.30;;;17.30;99.90;;;;;;5114205;28;20950;-69
2022/06/21 02:41:59;;;;;;;0.80;0.80;;;17.30;99.90;;;;;;5112674;28;20448;-69
2022/06/21 02:44:30;;;;;;;0.77;0.77;;;17.30;99.90;;;;;;5113847;28;20800;-69
2022/06/21 02:47:01;;;;;;;0.30;0.30;;;17.30;99.90;;;;;;5113797;28;20394;-69
2022/06/21 02:49:54;;;;;;;0.30;0.30;;;17.30;99.90;;;;;;5113795;28;20483;-69
2022/06/21 02:52:26;;;;;;;0.87;0.87;;;17.30;99.90;;;;;;5107705;28;20420;-69
2022/06/21 02:55:02;;;;;;;0.30;0.30;;;17.30;99.90;;;;;;5113777;28;20500;-70
2022/06/21 02:57:37;;;;;;;0.40;0.40;;;17.50;99.90;;;;;;5113775;28;20398;-68
2022/06/21 03:00:09;;;;;;;0.30;0.30;;;17.70;99.90;;;;;;5113628;28;20531;-69
2022/06/21 03:02:35;;;;;;;0.87;0.87;;;17.80;99.90;;;;;;5113532;28;20402;-69
2022/06/21 03:05:05;;;;;;;0.30;0.30;;;18.00;99.90;;;;;;5113724;28;20726;-69
2022/06/21 03:07:43;;;;;;;0.50;0.50;;;18.00;99.90;;;;;;5113574;28;20398;-69
2022/06/21 03:10:18;;;;;;;4.43;0.83;;;18.10;99.90;;;;;;5113614;28;20427;-69
2022/06/21 03:12:55;;;;;;;0.30;0.30;;;18.00;99.90;;;;;;5117731;28;20419;-69
2022/06/21 03:15:21;;;;;;;0.83;0.83;;;18.00;99.90;;;;;;5117608;27;20413;-69
2022/06/21 03:17:57;;;;;;;0.40;0.40;;;18.00;99.90;;;;;;5117471;28;20430;-69
2022/06/21 03:20:22;;;;;;;0.50;0.50;;;18.10;99.90;;;;;;5117514;28;20289;-69
2022/06/21 03:22:52;;;;;;;0.60;0.60;;;18.20;99.90;;;;;;5117120;28;20519;-69
2022/06/21 03:25:29;;;;;;;0.30;0.30;;;18.20;99.90;;;;;;5117625;27;20180;-69
2022/06/21 03:28:00;;;;;;;0.50;0.50;;;18.20;99.90;;;;;;5117385;28;20422;-68
2022/06/21 03:30:35;;;;;;;0.70;0.70;;;18.20;99.90;;;;;;5117326;28;20799;-68
2022/06/21 03:33:03;;;;;;;0.67;0.67;;;18.20;99.90;;;;;;5117489;28;20897;-68
2022/06/21 03:35:33;;;;;;;0.40;0.40;;;18.30;99.90;;;;;;5117149;28;20430;-69
2022/06/21 03:37:59;;;;;;;0.30;0.30;;;18.40;99.90;;;;;;5117249;28;20394;-69
2022/06/21 03:43:19;;;;;;;0.30;0.30;;;18.50;99.90;;;;;;5117419;28;20405;-69
2022/06/21 03:45:48;;;;;;;1.40;1.33;;;18.40;99.90;;;;;;5117256;28;20470;-69
2022/06/21 03:48:35;;;;;;;0.60;0.60;;;18.50;99.90;;;;;;5116918;28;20446;-70
2022/06/21 03:51:26;;;;;;;0.57;0.57;;;18.50;99.90;;;;;;5117087;28;20733;-69
2022/06/21 03:54:31;;;;;;;0.30;0.30;;;18.50;99.90;;;;;;5116955;28;20751;-69
2022/06/21 03:57:12;;;;;;;0.30;0.30;;;18.40;99.90;;;;;;5093448;27;20501;-68
2022/06/21 04:00:01;;;;;;;0.50;0.50;;;18.40;99.90;;;;;;5116955;28;20481;-69
2022/06/21 04:02:36;;;;;;;0.90;0.90;;;18.50;99.90;;;;;;5116058;28;20501;-69
2022/06/21 04:05:15;;;;;;;0.40;0.40;;;18.50;99.90;;;;;;5116846;27;20437;-69
2022/06/21 04:07:47;;;;;;;0.30;0.30;;;18.50;99.90;;;;;;5116598;28;20379;-69
2022/06/21 04:10:27;;;;;;;3.20;0.90;;;18.50;99.90;;;;;;5116527;28;20417;-70
2022/06/21 04:13:09;;;;;;;0.50;0.50;;;18.50;99.90;;;;;;5116496;28;20406;-69
2022/06/21 04:15:53;;;;;;;0.40;0.40;;;18.50;99.90;;;;;;5116822;28;21013;-69
2022/06/21 04:18:26;;;;;;;0.30;0.30;;;18.50;99.90;;;;;;5116390;28;20390;-69
2022/06/21 04:21:08;;;;;;;0.30;0.30;;;18.60;99.90;;;;;;5116307;28;20450;-70
2022/06/21 04:23:43;;;;;;;0.40;0.40;;;18.60;99.90;;;;;;5115141;28;20422;-69
2022/06/21 04:26:34;;;;;;;0.47;0.47;;;18.60;99.90;;;;;;5116174;28;20503;-69
2022/06/21 04:29:04;;;;;;;0.43;0.43;;;18.60;99.90;;;;;;5116396;28;20402;-68
2022/06/21 04:31:36;;;;;;;0.30;0.30;;;18.60;99.90;;;;;;5116208;28;20800;-69
2022/06/21 04:34:10;;;;;;;0.67;0.50;;;18.70;99.90;;;;;;5114606;28;20910;-69
2022/06/21 04:36:44;;;;;;;0.30;0.30;;;18.80;99.90;;;;;;5116086;28;20900;-69
2022/06/21 04:39:26;;;;;;;0.50;0.50;;;18.90;99.90;;;;;;5115891;28;20445;-69
2022/06/21 04:41:56;;;;;;;0.50;0.50;;;19.00;99.90;;;;;;5115092;28;21039;-70
2022/06/21 04:44:38;;;;;;;0.30;0.30;;;19.10;99.90;;;;;;5115615;28;20454;-69
2022/06/21 04:47:06;;;;;;;2.30;1.70;;;19.20;99.90;;;;;;5116172;28;20435;-69
2022/06/21 04:49:37;;;;;;;0.50;0.50;;;19.40;99.90;;;;;;5116217;28;20863;-69
2022/06/21 04:52:07;;;;;;;0.50;0.50;;;19.50;99.90;;;;;;5115864;28;20824;-70
2022/06/21 04:54:35;;;;;;;0.30;0.30;;;19.40;99.90;;;;;;5115644;28;20846;-69
2022/06/21 04:57:07;;;;;;;0.80;0.70;;;19.40;99.90;;;;;;5115683;28;20410;-69
2022/06/21 04:59:55;;;;;;;1.00;1.00;;;19.40;99.90;;;;;;5115745;28;20450;-70
2022/06/21 05:02:21;;;;;;;0.37;0.37;;;19.60;99.90;;;;;;5114052;28;20422;-69
2022/06/21 05:04:51;;;;;;;0.50;0.50;;;19.80;99.90;;;;;;5115441;28;20776;-70
2022/06/21 05:07:21;;;;;;;0.40;0.40;;;19.80;99.90;;;;;;5115527;28;20563;-69
2022/06/21 05:09:48;;;;;;;0.43;0.43;;;20.00;99.90;;;;;;5115548;28;20827;-69
2022/06/21 05:12:18;;;;;;;0.30;0.30;;;20.10;99.90;;;;;;5115065;28;20516;-69
2022/06/21 05:14:47;;;;;;;0.70;0.67;;;20.00;99.90;;;;;;5115203;28;20929;-69
2022/06/21 05:17:17;;;;;;;0.40;0.40;;;20.10;99.90;;;;;;5115302;28;20429;-69
2022/06/21 05:19:48;;;;;;;0.40;0.40;;;20.20;99.90;;;;;;5115205;28;20443;-69
2022/06/21 05:22:32;;;;;;;0.70;0.70;;;20.30;99.90;;;;;;5115171;28;20477;-70
2022/06/21 05:25:00;;;;;;;0.40;0.40;;;20.50;99.90;;;;;;5115229;28;20436;-69
2022/06/21 05:27:55;;;;;;;0.60;0.60;;;20.60;99.90;;;;;;5115047;28;20397;-70
2022/06/21 05:30:31;;;;;;;0.70;0.40;;;20.90;99.70;;;;;;5115038;28;20408;-69
2022/06/21 05:33:00;;;;;;;0.30;0.30;;;21.00;98.90;;;;;;5114790;28;20405;-69
2022/06/21 05:35:29;;;;;;;0.80;0.80;;;21.10;99.00;;;;;;5114815;28;20797;-70
2022/06/21 05:38:11;;;;;;;3.23;0.70;;;21.30;98.80;;;;;;5114891;28;20461;-69
2022/06/21 05:40:44;;;;;;;1.17;0.70;;;21.30;98.40;;;;;;5114897;28;20450;-69
2022/06/21 05:43:24;;;;;;;0.40;0.40;;;21.40;98.90;;;;;;5114644;28;20740;-70
2022/06/21 05:45:56;;;;;;;0.50;0.50;;;21.60;98.80;;;;;;5114777;28;20439;-69
2022/06/21 05:48:25;;;;;;;0.80;0.70;;;21.80;98.80;;;;;;5115152;28;20391;-68
2022/06/21 05:50:51;;;;;;;0.63;0.50;;;21.90;98.40;;;;;;5114663;28;20443;-69
2022/06/21 05:53:37;;;;;;;0.30;0.30;;;22.00;97.60;;;;;;5114427;28;20400;-69
2022/06/21 05:56:09;;;;;;;0.40;0.40;;;22.10;97.50;;;;;;5114499;28;20464;-69
2022/06/21 05:58:43;;;;;;;0.67;0.67;;;22.30;96.90;;;;;;5114766;28;20453;-69
2022/06/21 06:01:24;;;;;;;0.40;0.40;;;22.40;96.50;;;;;;5114457;28;20455;-69
2022/06/21 06:04:11;;;;;;;0.30;0.30;;;22.50;96.40;;;;;;5114490;28;20408;-70
2022/06/21 06:06:40;;;;;;;0.60;0.60;;;22.60;96.70;;;;;;5114544;28;20405;-70
2022/06/21 06:09:26;;;;;;;0.50;0.50;;;22.70;96.30;;;;;;5114738;28;20408;-69
2022/06/21 06:12:26;;;;;;;0.30;0.30;;;23.10;96.00;;;;;;5114401;28;20398;-68
2022/06/21 06:15:05;;;;;;;0.50;0.50;;;23.60;94.70;;;;;;5091753;28;20521;-69
2022/06/21 06:17:47;;;;;;;0.57;0.57;;;24.10;94.10;;;;;;5114452;28;20389;-70
2022/06/21 06:20:37;;;;;;;0.30;0.30;;;25.00;93.30;;;;;;5114468;28;20444;-70
2022/06/21 06:23:22;;;;;;;0.30;0.30;;;26.10;90.70;;;;;;5114064;28;20784;-70
2022/06/21 06:25:53;;;;;;;0.80;0.80;;;26.30;90.30;;;;;;5114268;28;20420;-70
2022/06/21 06:28:31;;;;;;;0.50;0.50;;;26.00;89.40;;;;;;5114166;28;20399;-70
2022/06/21 06:31:24;;;;;;;0.53;0.53;;;25.40;91.00;;;;;;5114243;28;20408;-69
2022/06/21 06:34:11;;;;;;;0.80;0.80;;;25.00;91.50;;;;;;5113386;28;20461;-70
2022/06/21 06:36:42;;;;;;;1.23;1.13;;;24.60;92.00;;;;;;5113475;28;20774;-70
2022/06/21 06:39:20;;;;;;;0.40;0.40;;;24.30;92.50;;;;;;5113951;28;20439;-69
2022/06/21 06:42:12;;;;;;;0.30;0.30;;;24.10;93.00;;;;;;5114175;28;20495;-70
2022/06/21 06:44:43;;;;;;;0.30;0.30;;;24.20;93.40;;;;;;5113902;28;20497;-69
2022/06/21 06:47:15;;;;;;;0.30;0.30;;;23.90;93.40;;;;;;5119970;28;20388;-69
2022/06/21 06:50:07;;;;;;;0.30;0.30;;;23.80;94.20;;;;;;5120784;28;20380;-70
2022/06/21 06:52:48;;;;;;;0.30;0.30;;;23.70;94.40;;;;;;5120518;27;20380;-70
2022/06/21 06:55:42;;;;;;;0.30;0.30;;;23.90;93.60;;;;;;5120608;27;20477;-70
2022/06/21 06:58:28;;;;;;;2.70;0.60;;;24.30;93.80;;;;;;5120842;27;20379;-70
2022/06/21 07:01:36;;;;;;;0.30;0.30;;;24.80;93.50;;;;;;5120988;28;20505;-69
2022/06/21 07:04:04;;;;;;;1.27;1.27;;;25.50;93.00;;;;;;5120174;27;20499;-69
2022/06/21 07:06:47;;;;;;;0.40;0.40;;;26.50;91.60;;;;;;5120554;28;20401;-70
2022/06/21 07:09:22;;;;;;;1.10;0.60;;;27.20;89.60;;;;;;5120534;27;20511;-70
2022/06/21 07:11:57;;;;;;;0.50;0.50;;;27.80;87.00;;;;;;5120759;27;20385;-70
2022/06/21 07:14:26;;;;;;;0.30;0.30;;;28.80;84.60;;;;;;5120383;27;20401;-69
2022/06/21 07:17:13;;;;;;;0.30;0.30;;;29.20;78.80;;;;;;5120463;27;20402;-70
2022/06/21 07:19:40;;;;;;;0.40;0.40;;;28.70;80.80;;;;;;5120861;27;20449;-70
2022/06/21 07:22:15;;;;;;;0.87;0.87;;;28.40;81.80;;;;;;5120173;27;20550;-71
2022/06/21 07:24:44;;;;;;;0.33;0.33;;;28.10;83.40;;;;;;5120326;27;20413;-70
2022/06/21 07:27:13;;;;;;;0.57;0.50;;;27.50;83.00;;;;;;5120408;27;20937;-69
2022/06/21 07:29:59;;;;;;;0.30;0.30;;;27.00;84.80;;;;;;5120572;27;20741;-70
2022/06/21 07:32:33;;;;;;;0.37;0.37;;;26.60;85.20;;;;;;5120130;27;20933;-71
2022/06/21 07:35:10;;;;;;;0.60;0.60;;;26.60;85.80;;;;;;5120270;27;20441;-69
2022/06/21 07:37:42;;;;;;;0.73;0.73;;;27.00;85.50;;;;;;5120443;27;20412;-70
2022/06/21 07:40:19;;;;;;;0.40;0.40;;;27.80;84.10;;;;;;5120372;27;20445;-70
2022/06/21 07:43:02;;;;;;;0.50;0.50;;;29.00;80.50;;;;;;5120322;27;20408;-70
2022/06/21 07:45:34;;;;;;;0.40;0.40;;;30.10;77.90;;;;;;5120166;27;20462;-70
2022/06/21 07:48:25;;;;;;;0.90;0.80;;;30.90;76.10;;;;;;5120466;27;20425;-70
2022/06/21 07:50:57;;;;;;;0.57;0.50;;;31.20;75.10;;;;;;5119767;28;20441;-69
2022/06/21 07:53:29;;;;;;;0.60;0.60;;;30.90;72.80;;;;;;5120216;27;20437;-70
2022/06/21 07:56:13;;;;;;;0.30;0.30;;;31.50;74.40;;;;;;5120199;27;20486;-70
2022/06/21 07:59:03;;;;;;;0.40;0.40;;;32.40;70.80;;;;;;5116007;27;20458;-70
2022/06/21 08:07:48;;;;;;;0.40;0.30;;;35.10;57.70;;;;;;5117225;28;20482;-71
2022/06/21 08:10:34;;;;;;;0.60;0.60;;;35.70;57.00;;;;;;5116813;28;20455;-71
2022/06/21 08:13:00;;;;;;;0.30;0.30;;;36.00;57.20;;;;;;5116231;28;20499;-70
2022/06/21 08:15:31;;;;;;;1.40;1.33;;;36.30;54.60;;;;;;5116685;28;20446;-71
2022/06/21 08:18:07;;;;;;;0.43;0.40;;;35.70;54.10;;;;;;5116536;28;20257;-71
2022/06/21 08:20:47;;;;;;;0.67;0.67;;;35.80;54.10;;;;;;5116478;28;20586;-70
2022/06/21 08:23:25;;;;;;;0.60;0.60;;;35.30;54.10;;;;;;5116141;28;20421;-70
2022/06/21 08:26:00;;;;;;;0.30;0.30;;;35.40;55.50;;;;;;5116600;28;20425;-71
2022/06/21 08:28:25;;;;;;;0.50;0.50;;;36.10;51.90;;;;;;5116417;28;20431;-71
2022/06/21 08:30:56;;;;;;;0.40;0.40;;;36.30;52.30;;;;;;5116472;28;20435;-71
2022/06/21 08:33:47;;;;;;;0.80;0.80;;;36.00;51.40;;;;;;5116188;28;20164;-71
2022/06/21 08:36:23;;;;;;;1.07;0.80;;;34.80;51.20;;;;;;5116173;28;20422;-71
2022/06/21 08:39:03;;;;;;;0.40;0.30;;;34.60;52.10;;;;;;5116377;28;20398;-70
2022/06/21 08:41:55;;;;;;;0.60;0.60;;;35.10;51.60;;;;;;5116308;28;20917;-71
2022/06/21 08:44:49;;;;;;;1.13;1.03;;;35.80;51.30;;;;;;5115985;28;20417;-70
2022/06/21 08:47:48;;;;;;;1.33;0.73;;;36.30;50.00;;;;;;5115940;27;20890;-71
2022/06/21 08:50:41;;;;;;;0.87;0.70;;;36.50;47.70;;;;;;5099525;28;20489;-71
2022/06/21 08:53:28;;;;;;;0.80;0.80;;;36.20;49.30;;;;;;5115780;28;20398;-70
2022/06/21 08:56:15;;;;;;;0.50;0.50;;;35.70;48.30;;;;;;5115803;27;20422;-71
2022/06/21 08:58:52;;;;;;;0.70;0.70;;;36.10;49.90;;;;;;5115834;28;20389;-70
2022/06/21 09:01:41;;;;;;;0.90;0.90;;;36.50;47.40;;;;;;5115764;28;20534;-71
2022/06/21 09:04:22;;;;;;;1.17;1.07;;;36.70;46.70;;;;;;5115400;28;20890;-70
2022/06/21 09:07:18;;;;;;;0.70;0.70;;;37.40;46.90;;;;;;5115714;28;20378;-71
2022/06/21 09:09:58;;;;;;;0.73;0.63;;;37.40;47.10;;;;;;5115323;28;20600;-71
2022/06/21 09:12:33;;;;;;;0.60;0.60;;;37.50;48.50;;;;;;5115275;28;20777;-70
2022/06/21 09:15:27;;;;;;;0.40;0.33;;;38.00;44.80;;;;;;5115533;28;20428;-71
2022/06/21 09:18:05;;;;;;;0.90;0.90;;;38.10;45.70;;;;;;5115330;28;20860;-71
2022/06/21 09:20:51;;;;;;;0.50;0.50;;;38.60;45.20;;;;;;5115276;28;20479;-71
2022/06/21 09:23:44;;;;;;;0.40;0.40;;;39.20;42.50;;;;;;5115213;28;20422;-70
2022/06/21 09:26:42;;;;;;;0.70;0.70;;;38.40;44.10;;;;;;5115135;28;20423;-71
2022/06/21 09:29:11;;;;;;;0.50;0.50;;;36.30;46.40;;;;;;5115508;28;20402;-72
2022/06/21 09:31:52;;;;;;;0.63;0.60;;;35.40;48.40;;;;;;5115128;28;20745;-71
2022/06/21 09:34:45;;;;;;;0.60;0.60;;;36.10;47.90;;;;;;5113612;28;20410;-71
2022/06/21 09:37:19;;;;;;;0.83;0.83;;;35.60;45.30;;;;;;5114772;28;20395;-70
2022/06/21 09:39:56;;;;;;;0.40;0.40;;;35.00;46.70;;;;;;5113830;28;20501;-69
2022/06/21 09:42:49;;;;;;;0.30;0.30;;;34.00;44.10;;;;;;5112077;28;20397;-71
2022/06/21 09:45:35;;;;;;;0.40;0.40;;;32.50;51.70;;;;;;5113817;28;20804;-69
2022/06/21 09:48:04;;;;;;;0.37;0.37;;;32.20;52.50;;;;;;5115213;28;20402;-70
2022/06/21 09:50:59;;;;;;;0.60;0.57;;;32.30;50.60;;;;;;5114942;28;20403;-71
2022/06/21 09:53:47;;;;;;;1.83;1.23;;;32.10;46.80;;;;;;5106769;28;20992;-70
2022/06/21 09:57:03;;;;;;;0.30;0.30;;;33.00;48.00;;;;;;5114626;28;20418;-71
2022/06/21 09:59:35;;;;;;;0.50;0.50;;;33.00;44.60;;;;;;5111293;28;20453;-70
2022/06/21 10:02:15;;;;;;;0.47;0.47;;;32.20;47.10;;;;;;5114823;28;20405;-70
2022/06/21 10:05:03;;;;;;;0.30;0.30;;;31.60;49.10;;;;;;5114477;28;20425;-70
2022/06/21 10:08:00;;;;;;;0.60;0.60;;;30.80;50.60;;;;;;5114560;28;20378;-70
2022/06/21 10:10:44;;;;;;;0.50;0.50;;;30.00;54.50;;;;;;5114792;28;20405;-70
2022/06/21 10:13:31;;;;;;;0.40;0.40;;;29.60;56.40;;;;;;5114446;28;20394;-70
2022/06/21 10:16:19;;;;;;;0.47;0.47;;;29.40;50.70;;;;;;5114264;28;20782;-70
2022/06/21 10:18:51;;;;;;;0.83;0.83;;;29.50;53.70;;;;;;5114703;27;20409;-70
2022/06/21 10:21:29;;;;;;;1.27;1.27;;;29.90;50.10;;;;;;5113915;28;20473;-70
2022/06/21 10:24:27;;;;;;;0.60;0.60;;;31.20;51.70;;;;;;5114032;28;20433;-71
2022/06/21 10:27:32;;;;;;;0.40;0.40;;;32.20;53.30;;;;;;5114050;28;20409;-70
2022/06/21 10:30:15;;;;;;;0.30;0.30;;;32.10;55.20;;;;;;5114351;28;20418;-70
2022/06/21 10:33:23;;;;;;;0.47;0.47;;;32.50;55.80;;;;;;5113976;28;20406;-70
2022/06/21 10:36:11;;;;;;;1.07;1.07;;;32.80;50.00;;;;;;5104747;28;20834;-71
2022/06/21 10:39:02;;;;;;;0.50;0.50;;;33.30;50.80;;;;;;5114096;28;20401;-71
2022/06/21 10:42:46;;;;;;;0.70;0.63;;;33.70;51.60;;;;;;5114163;28;20398;-70
2022/06/21 10:44:52;;;;;;;0.30;0.30;;;33.30;49.10;;;;;;5113774;28;20414;-70
2022/06/21 10:47:39;;;;;;;1.07;0.97;;;33.00;47.90;;;;;;5113963;28;20406;-70
2022/06/21 10:50:33;;;;;;;0.40;0.40;;;32.70;46.10;;;;;;5114061;28;20390;-71
2022/06/21 10:53:20;;;;;;;0.97;0.97;;;33.00;46.00;;;;;;5113693;28;20406;-71
2022/06/21 10:57:09;;;;;;;0.40;0.40;;;33.30;47.30;;;;;;5113787;28;20430;-70
2022/06/21 10:58:58;;;;;;;1.47;1.47;;;33.00;46.60;;;;;;5113677;28;20406;-70
2022/06/21 11:01:48;;;;;;;0.40;0.40;;;32.00;46.90;;;;;;5113843;28;20445;-70
2022/06/21 11:04:25;;;;;;;0.60;0.60;;;31.80;52.80;;;;;;5113740;28;20434;-70
2022/06/21 11:07:07;;;;;;;0.60;0.60;;;31.60;50.80;;;;;;5113980;28;20429;-71
2022/06/21 11:09:46;;;;;;;0.50;0.50;;;31.30;49.80;;;;;;5113698;28;20481;-71
2022/06/21 11:15:47;;;;;;;0.40;0.40;;;31.10;51.30;;;;;;5114130;28;20415;-70
2022/06/21 11:18:41;;;;;;;0.50;0.50;;;31.10;51.10;;;;;;5108148;28;20414;-71
2022/06/21 11:21:07;;;;;;;1.27;0.70;;;31.10;50.90;;;;;;5113696;28;20433;-70
2022/06/21 11:23:54;;;;;;;0.30;0.30;;;31.30;51.20;;;;;;5113336;28;20417;-70
2022/06/21 11:26:25;;;;;;;0.40;0.40;;;31.20;49.10;;;;;;5113488;28;20184;-70
2022/06/21 11:29:02;;;;;;;0.77;0.77;;;31.00;49.50;;;;;;5113695;28;20394;-69
2022/06/21 11:31:55;;;;;;;0.40;0.40;;;30.90;49.00;;;;;;5113926;28;20389;-70
2022/06/21 11:34:42;;;;;;;0.30;0.30;;;31.00;50.20;;;;;;5117255;28;20459;-70
2022/06/21 11:37:30;;;;;;;0.37;0.37;;;30.70;48.90;;;;;;5117563;28;20430;-70
2022/06/21 11:40:02;;;;;;;0.70;0.70;;;30.50;48.90;;;;;;5117404;28;20456;-70
2022/06/21 11:42:42;;;;;;;0.40;0.40;;;30.60;48.70;;;;;;5117097;28;20406;-69
2022/06/21 11:45:38;;;;;;;0.50;0.50;;;30.50;48.50;;;;;;5117261;28;20863;-70
2022/06/21 11:48:07;;;;;;;0.40;0.40;;;30.30;47.30;;;;;;5117113;28;20386;-70
2022/06/21 11:50:56;;;;;;;0.40;0.40;;;30.30;46.60;;;;;;5117463;28;20401;-70
2022/06/21 11:53:29;;;;;;;1.20;1.13;;;30.40;47.90;;;;;;5096261;28;20413;-70
2022/06/21 11:56:25;;;;;;;0.90;0.90;;;30.50;46.30;;;;;;5116986;28;20479;-70
2022/06/21 11:59:32;;;;;;;0.93;0.80;;;30.70;48.40;;;;;;5099195;28;20416;-70
2022/06/21 12:02:09;;;;;;;1.53;1.53;;;30.50;48.90;;;;;;5117098;28;20789;-71
2022/06/21 12:04:59;;;;;;;0.30;0.30;;;30.20;50.70;;;;;;5116971;28;20417;-70
2022/06/21 12:07:51;;;;;;;0.67;0.50;;;29.90;54.20;;;;;;5116962;28;20398;-71
2022/06/21 12:10:38;;;;;;;0.30;0.30;;;29.60;51.50;;;;;;5116895;28;20394;-70
2022/06/21 12:13:19;;;;;;;1.03;1.03;;;29.50;51.20;;;;;;5116501;27;20398;-70
2022/06/21 12:15:58;;;;;;;0.50;0.50;;;29.30;51.20;;;;;;5116613;28;20426;-70
2022/06/21 12:18:28;;;;;;;0.83;0.83;;;29.30;51.70;;;;;;5115471;28;20409;-70
2022/06/21 12:21:09;;;;;;;0.67;0.67;;;29.20;50.60;;;;;;5116875;28;20457;-69
2022/06/21 12:23:44;;;;;;;0.77;0.40;;;28.80;50.30;;;;;;5116305;28;20423;-70
2022/06/21 12:26:25;;;;;;;0.70;0.70;;;28.60;50.00;;;;;;5113434;28;21103;-69
2022/06/21 12:28:53;;;;;;;0.50;0.50;;;28.40;50.40;;;;;;5116493;28;20410;-70
2022/06/21 12:31:28;;;;;;;0.50;0.50;;;28.50;50.90;;;;;;5116426;27;20483;-71
2022/06/21 12:34:02;;;;;;;0.43;0.43;;;28.50;51.00;;;;;;5115944;28;20380;-70
2022/06/21 12:36:39;;;;;;;0.50;0.50;;;28.50;50.00;;;;;;5116416;28;20390;-69
2022/06/21 12:39:14;;;;;;;0.50;0.50;;;28.60;50.10;;;;;;5116338;28;20405;-70
2022/06/21 12:42:07;;;;;;;0.30;0.30;;;28.60;51.50;;;;;;5116219;28;20530;-71
2022/06/21 12:44:41;;;;;;;0.40;0.40;;;28.60;50.40;;;;;;5115461;28;20940;-70
2022/06/21 12:47:33;;;;;;;0.30;0.30;;;28.60;50.50;;;;;;5116246;28;20381;-69
2022/06/21 12:50:26;;;;;;;0.30;0.30;;;28.70;51.20;;;;;;5116189;28;20753;-71
2022/06/21 12:53:11;;;;;;;0.30;0.30;;;29.00;55.40;;;;;;5115687;28;20398;-70
2022/06/21 12:56:03;;;;;;;0.53;0.50;;;29.00;51.20;;;;;;5115744;28;20425;-70
2022/06/21 12:59:03;;;;;;;1.03;0.83;;;29.10;51.90;;;;;;5115966;28;20390;-70
2022/06/21 13:01:46;;;;;;;0.50;0.50;;;29.00;50.80;;;;;;5115643;28;20503;-70
2022/06/21 13:04:35;;;;;;;0.40;0.40;;;29.00;51.80;;;;;;5115595;27;20394;-70
2022/06/21 13:07:30;;;;;;;0.30;0.30;;;29.00;50.70;;;;;;5115635;28;20440;-71
2022/06/21 13:10:26;;;;;;;0.30;0.30;;;29.10;51.40;;;;;;5116026;28;20481;-70
2022/06/21 13:13:16;;;;;;;0.70;0.70;;;29.10;51.50;;;;;;5115435;28;20436;-70
2022/06/21 13:15:50;;;;;;;0.70;0.70;;;29.30;51.80;;;;;;5115597;28;20766;-70
2022/06/21 13:18:25;;;;;;;0.50;0.50;;;29.50;52.10;;;;;;5115398;28;20760;-70
2022/06/21 13:21:10;;;;;;;0.40;0.40;;;29.50;50.90;;;;;;5115272;28;20445;-71
2022/06/21 13:23:41;;;;;;;0.30;0.30;;;29.10;50.00;;;;;;5115061;28;20530;-70
2022/06/21 13:26:18;;;;;;;0.70;0.70;;;29.20;51.90;;;;;;5115113;28;20928;-69
2022/06/21 13:28:51;;;;;;;0.50;0.50;;;29.10;49.80;;;;;;5113890;28;20497;-70
2022/06/21 13:31:33;;;;;;;0.30;0.30;;;29.00;50.30;;;;;;5115184;28;20406;-71
2022/06/21 13:34:05;;;;;;;1.07;0.73;;;29.00;50.90;;;;;;5115044;28;20402;-70
2022/06/21 13:36:50;;;;;;;0.40;0.40;;;29.00;50.30;;;;;;5114999;28;20497;-69
2022/06/21 13:39:35;;;;;;;1.90;1.67;;;28.90;50.00;;;;;;5113705;28;20420;-70
2022/06/21 13:42:43;;;;;;;0.57;0.57;;;28.50;50.00;;;;;;5115016;28;20377;-70
2022/06/21 13:45:25;;;;;;;0.40;0.40;;;28.30;52.30;;;;;;5115038;28;20432;-71
2022/06/21 13:48:04;;;;;;;0.40;0.40;;;28.50;52.50;;;;;;5114901;28;20398;-69
2022/06/21 13:50:39;;;;;;;0.50;0.50;;;28.70;54.30;;;;;;5114813;28;20409;-70
2022/06/21 13:53:38;;;;;;;1.60;1.50;;;28.70;52.70;;;;;;5114644;28;20401;-69
2022/06/21 13:56:19;;;;;;;0.50;0.50;;;28.90;53.50;;;;;;5113807;28;20437;-70
2022/06/21 13:58:51;;;;;;;0.40;0.40;;;28.80;50.40;;;;;;5114817;28;20402;-69
2022/06/21 14:01:44;;;;;;;0.30;0.30;;;28.90;51.10;;;;;;5115208;28;20949;-70
2022/06/21 14:04:23;;;;;;;0.40;0.40;;;29.00;50.30;;;;;;5114347;28;20398;-70
2022/06/21 14:07:07;;;;;;;0.40;0.40;;;29.00;50.70;;;;;;5114517;28;20379;-70
2022/06/21 14:09:44;;;;;;;0.60;0.60;;;28.90;50.90;;;;;;5114644;28;20398;-69